Time;durP1;ratioP1;P1;durP2;ratioP2;P2;SDS_P1;SDS_P2;PMS_P1;PMS_P2;Temp;Humidity;BMP_temperature;BMP_pressure;BME280_temperature;BME280_humidity;BME280_pressure;Samples;Min_cycle;Max_cycle;Signal;HPM_P1;HPM_P2
2023/05/19 00:02:11;;;;;;;15.65;6.63;;;;;;;8.51;67.76;102523.31;5081316;28;20049;-70
2023/05/19 00:04:57;;;;;;;8.23;6.05;;;;;;;8.48;68.03;102520.66;5086273;28;20040;-70
2023/05/19 00:07:44;;;;;;;8.68;6.30;;;;;;;8.43;68.05;102526.72;5085523;28;20075;-70
2023/05/19 00:10:31;;;;;;;10.52;6.72;;;;;;;8.39;68.28;102528.47;5087407;28;20048;-70
2023/05/19 00:13:18;;;;;;;10.48;6.43;;;;;;;8.35;68.45;102531.94;5086154;28;20048;-70
2023/05/19 00:16:05;;;;;;;9.07;6.53;;;;;;;8.31;68.73;102520.53;5086482;28;20056;-71
2023/05/19 00:18:50;;;;;;;13.52;7.00;;;;;;;8.26;68.92;102519.63;5086380;28;20044;-70
2023/05/19 00:21:39;;;;;;;11.57;7.28;;;;;;;8.26;69.48;102519.63;5086933;28;20041;-70
2023/05/19 00:24:24;;;;;;;11.95;7.55;;;;;;;8.22;69.38;102520.47;5070419;28;20500;-71
2023/05/19 00:27:10;;;;;;;12.60;7.78;;;;;;;8.14;69.07;102524.81;5079751;28;20123;-70
2023/05/19 00:29:56;;;;;;;11.48;7.68;;;;;;;8.12;69.58;102529.16;5080228;28;20049;-71
2023/05/19 00:32:41;;;;;;;15.45;9.00;;;;;;;8.07;70.07;102522.13;5086012;28;20051;-71
2023/05/19 00:35:26;;;;;;;14.55;7.85;;;;;;;8.08;70.80;102516.03;5086389;28;20453;-72
2023/05/19 00:38:12;;;;;;;14.10;8.52;;;;;;;8.07;70.96;102511.63;5087929;28;20103;-72
2023/05/19 00:40:59;;;;;;;12.55;8.15;;;;;;;8.05;71.48;102505.50;5088473;28;20650;-71
2023/05/19 00:43:44;;;;;;;10.38;8.32;;;;;;;8.05;71.62;102509.84;5070458;28;20041;-70
2023/05/19 00:46:31;;;;;;;16.00;8.63;;;;;;;8.03;71.80;102506.34;5065325;28;20505;-71
2023/05/19 00:49:16;;;;;;;15.05;8.70;;;;;;;8.03;72.06;102509.84;5067050;28;20553;-71
2023/05/19 00:52:04;;;;;;;12.25;9.18;;;;;;;8.00;72.46;102504.56;5085764;28;20052;-71
2023/05/19 00:54:52;;;;;;;16.38;8.48;;;;;;;7.98;72.79;102493.19;5081631;28;20052;-71
2023/05/19 00:57:37;;;;;;;12.90;8.98;;;;;;;7.96;73.04;102489.66;5077660;28;20052;-71
2023/05/19 01:00:23;;;;;;;13.32;9.00;;;;;;;7.94;73.33;102496.66;5071860;28;20095;-71
2023/05/19 01:03:10;;;;;;;14.00;8.63;;;;;;;7.88;73.44;102484.34;5066351;28;20045;-71
2023/05/19 01:06:00;;;;;;;12.07;7.78;;;;;;;7.89;73.83;102488.75;5067891;28;20057;-71
2023/05/19 01:08:46;;;;;;;17.75;8.77;;;;;;;7.86;74.16;102493.09;5079210;28;20044;-71
2023/05/19 01:11:31;;;;;;;16.63;8.57;;;;;;;7.85;74.38;102489.56;5078331;28;20500;-71
2023/05/19 01:14:19;;;;;;;12.27;8.15;;;;;;;7.86;74.44;102486.09;5088123;28;20041;-71
2023/05/19 01:17:14;;;;;;;14.35;8.38;;;;;;;7.83;74.47;102486.09;5088637;28;20052;-71
2023/05/19 01:20:09;;;;;;;14.40;8.63;;;;;;;7.82;74.76;102496.56;5079290;28;20040;-71
2023/05/19 01:23:35;;;;;;;15.07;8.63;;;;;;;7.79;75.03;102494.78;5081233;28;20897;-71
2023/05/19 01:26:53;;;;;;;13.75;8.52;;;;;;;7.74;75.18;102502.63;5072466;28;20083;-71
2023/05/19 01:30:24;;;;;;;13.23;8.57;;;;;;;7.73;75.16;102502.63;5063859;28;20044;-71
2023/05/19 01:33:14;;;;;;;12.65;8.50;;;;;;;7.69;75.50;102500.84;5068467;28;20040;-71
2023/05/19 01:36:02;;;;;;;13.63;8.65;;;;;;;7.66;75.70;102496.44;5068191;28;20048;-71
2023/05/19 01:38:54;;;;;;;13.63;8.25;;;;;;;7.67;76.07;102505.19;5086750;28;20048;-71
2023/05/19 01:41:41;;;;;;;11.93;8.55;;;;;;;7.66;76.45;102501.69;5089454;28;20049;-71
2023/05/19 01:44:27;;;;;;;13.57;7.93;;;;;;;7.63;76.70;102511.28;5085518;28;20049;-71
2023/05/19 01:47:13;;;;;;;11.48;8.15;;;;;;;7.58;76.96;102506.88;5083439;28;20049;-72
2023/05/19 01:49:59;;;;;;;12.50;8.63;;;;;;;7.58;77.55;102504.25;5084902;28;20063;-72
2023/05/19 01:52:45;;;;;;;10.63;8.45;;;;;;;7.54;77.62;102498.97;5080192;28;20053;-71
2023/05/19 01:55:30;;;;;;;11.70;7.90;;;;;;;7.50;77.75;102503.31;5085458;28;20091;-71
2023/05/19 01:58:38;;;;;;;13.25;8.48;;;;;;;7.44;78.26;102504.13;5082618;28;20045;-71
2023/05/19 02:01:47;;;;;;;12.52;8.35;;;;;;;7.42;78.71;102495.34;5072984;28;20049;-71
2023/05/19 02:04:46;;;;;;;12.02;8.13;;;;;;;7.41;79.00;102500.59;5086603;28;20052;-71
2023/05/19 02:08:00;;;;;;;13.80;8.52;;;;;;;7.40;79.53;102489.19;5082245;28;20505;-71
2023/05/19 02:11:06;;;;;;;13.50;8.32;;;;;;;7.37;79.85;102490.91;5088740;28;20052;-71
2023/05/19 02:13:59;;;;;;;14.05;8.38;;;;;;;7.30;79.84;102488.25;5088165;28;20040;-72
2023/05/19 02:16:47;;;;;;;13.85;8.48;;;;;;;7.27;80.41;102482.97;5071793;28;20092;-72
2023/05/19 02:19:37;;;;;;;9.70;8.27;;;;;;;7.23;80.70;102481.16;5069662;28;20048;-72
2023/05/19 02:22:23;;;;;;;11.75;8.35;;;;;;;7.21;81.22;102474.16;5070635;28;20040;-72
2023/05/19 02:25:10;;;;;;;17.02;8.05;;;;;;;7.19;81.43;102471.53;5072420;28;20191;-71
2023/05/19 02:27:57;;;;;;;12.45;8.18;;;;;;;7.19;81.69;102475.88;5069983;28;20766;-70
2023/05/19 02:30:42;;;;;;;11.93;8.20;;;;;;;7.17;81.89;102477.63;5086533;28;20119;-71
2023/05/19 02:33:29;;;;;;;14.73;8.10;;;;;;;7.13;82.12;102472.34;5087810;28;20045;-71
2023/05/19 02:36:14;;;;;;;11.02;7.93;;;;;;;7.15;82.69;102473.25;5088569;28;20740;-71
2023/05/19 02:39:03;;;;;;;13.10;8.60;;;;;;;7.14;82.78;102471.47;5085477;28;20056;-71
2023/05/19 02:41:49;;;;;;;12.18;8.30;;;;;;;7.13;83.10;102468.81;5086671;28;20782;-72
2023/05/19 02:44:35;;;;;;;12.07;8.13;;;;;;;7.14;83.32;102468.84;5072115;28;20037;-72
2023/05/19 02:47:20;;;;;;;13.43;8.80;;;;;;;7.12;83.47;102467.09;5070264;28;20044;-71
2023/05/19 02:50:07;;;;;;;14.40;8.93;;;;;;;7.10;83.82;102469.69;5084808;28;20049;-72
2023/05/19 02:52:53;;;;;;;13.95;8.32;;;;;;;7.09;83.91;102465.28;5087854;28;20040;-71
2023/05/19 02:55:38;;;;;;;14.35;8.13;;;;;;;7.12;84.15;102462.72;5065365;28;20045;-72
2023/05/19 02:58:23;;;;;;;15.48;9.20;;;;;;;7.07;84.43;102476.63;5071623;28;20119;-71
2023/05/19 03:01:09;;;;;;;14.70;8.20;;;;;;;7.07;84.67;102474.00;5065875;28;20061;-71
2023/05/19 03:03:55;;;;;;;13.00;8.48;;;;;;;7.03;84.83;102473.09;5053091;28;20040;-72
2023/05/19 03:06:41;;;;;;;14.45;8.63;;;;;;;6.99;84.86;102463.44;5084364;28;20090;-72
2023/05/19 03:09:26;;;;;;;12.65;8.40;;;;;;;6.95;85.06;102466.91;5085584;28;20550;-71
2023/05/19 03:12:11;;;;;;;15.25;8.95;;;;;;;6.93;85.41;102464.25;5083849;28;20470;-72
2023/05/19 03:14:57;;;;;;;15.57;9.38;;;;;;;6.90;85.70;102469.47;5071899;28;20045;-72
2023/05/19 03:17:42;;;;;;;15.65;8.77;;;;;;;6.85;86.21;102463.28;5057733;28;20041;-72
2023/05/19 03:20:29;;;;;;;15.75;8.60;;;;;;;6.83;86.40;102467.63;5085437;28;20045;-71
2023/05/19 03:23:15;;;;;;;11.98;7.80;;;;;;;6.81;86.59;102464.13;5086661;28;20049;-72
2023/05/19 03:26:00;;;;;;;16.48;9.45;;;;;;;6.79;86.92;102468.47;5087454;28;20083;-71
2023/05/19 03:28:45;;;;;;;14.32;9.20;;;;;;;6.77;87.18;102471.06;5083993;28;20045;-71
2023/05/19 03:31:31;;;;;;;17.05;8.25;;;;;;;6.75;87.30;102466.66;5086036;28;20045;-71
2023/05/19 03:34:16;;;;;;;13.73;8.07;;;;;;;6.75;87.50;102472.81;5080798;28;20131;-72
2023/05/19 03:37:02;;;;;;;15.35;8.32;;;;;;;6.78;87.65;102472.81;5085445;28;20041;-71
2023/05/19 03:39:47;;;;;;;14.85;8.23;;;;;;;6.79;87.89;102466.72;5069801;28;20049;-72
2023/05/19 03:42:33;;;;;;;15.35;8.63;;;;;;;6.80;88.02;102472.88;5070322;28;20127;-72
2023/05/19 03:45:18;;;;;;;13.25;7.82;;;;;;;6.82;88.33;102473.72;5071739;28;20057;-72
2023/05/19 03:48:08;;;;;;;12.98;7.82;;;;;;;6.85;88.15;102476.41;5067969;28;20135;-73
2023/05/19 03:51:16;;;;;;;13.85;8.00;;;;;;;6.89;88.47;102487.78;5068441;28;20543;-70
2023/05/19 03:54:03;;;;;;;16.50;8.15;;;;;;;6.91;88.36;102488.69;5066458;28;20045;-70
2023/05/19 03:56:49;;;;;;;13.75;8.00;;;;;;;6.96;88.23;102490.50;5053590;28;21163;-71
2023/05/19 03:59:36;;;;;;;16.50;8.55;;;;;;;6.98;88.40;102491.41;5087532;28;20049;-70
2023/05/19 04:02:21;;;;;;;11.27;7.65;;;;;;;7.05;88.28;102489.75;5088681;28;20052;-70
2023/05/19 04:05:07;;;;;;;14.05;7.90;;;;;;;7.22;87.70;102487.31;5070874;28;20052;-70
2023/05/19 04:07:54;;;;;;;11.27;7.72;;;;;;;7.27;87.29;102482.97;5060454;28;20041;-71
2023/05/19 04:10:40;;;;;;;13.73;7.68;;;;;;;7.29;87.35;102486.50;5070436;28;20056;-70
2023/05/19 04:13:25;;;;;;;13.07;8.13;;;;;;;7.34;87.38;102489.16;5089391;28;20045;-70
2023/05/19 04:16:14;;;;;;;14.50;7.97;;;;;;;7.37;87.38;102486.56;5088840;28;20048;-71
2023/05/19 04:19:00;;;;;;;13.57;7.85;;;;;;;7.41;87.29;102490.97;5067609;28;20106;-71
2023/05/19 04:21:45;;;;;;;11.80;7.15;;;;;;;7.46;87.21;102488.38;5070487;28;20056;-71
2023/05/19 04:24:32;;;;;;;12.95;7.72;;;;;;;7.50;87.12;102491.91;5089567;28;20501;-71
2023/05/19 04:27:18;;;;;;;14.77;7.88;;;;;;;7.54;86.73;102491.09;5073747;28;20040;-71
2023/05/19 04:30:05;;;;;;;15.02;7.97;;;;;;;7.55;86.90;102492.84;5073807;28;20053;-72
2023/05/19 04:32:50;;;;;;;14.45;8.10;;;;;;;7.62;86.75;102489.41;5084171;28;20041;-71
2023/05/19 04:35:37;;;;;;;14.25;8.40;;;;;;;7.69;86.53;102488.56;5070609;28;20127;-71
2023/05/19 04:38:22;;;;;;;13.75;7.47;;;;;;;7.81;86.05;102486.91;5086589;28;20549;-71
2023/05/19 04:41:09;;;;;;;13.90;7.55;;;;;;;7.87;85.81;102481.72;5087161;28;20052;-70
2023/05/19 04:43:56;;;;;;;14.65;7.68;;;;;;;7.91;85.68;102484.38;5077401;28;20055;-69
2023/05/19 04:46:43;;;;;;;13.57;7.57;;;;;;;8.43;84.13;102485.56;5069346;28;20100;-71
2023/05/19 04:49:38;;;;;;;11.38;7.47;;;;;;;8.72;82.45;102483.94;5085050;28;20508;-67
2023/05/19 04:52:27;;;;;;;11.43;6.63;;;;;;;8.65;82.46;102488.28;5085145;28;20102;-68
2023/05/19 04:55:13;;;;;;;13.43;6.90;;;;;;;8.71;82.47;102490.97;5069955;28;20151;-70
2023/05/19 04:57:59;;;;;;;12.13;6.78;;;;;;;9.14;80.96;102482.31;5085960;28;20052;-70
2023/05/19 05:00:45;;;;;;;13.40;7.30;;;;;;;9.47;79.35;102486.75;5070951;28;20493;-71
2023/05/19 05:03:33;;;;;;;12.15;6.80;;;;;;;9.37;79.12;102478.84;5054907;28;20048;-71
2023/05/19 05:06:22;;;;;;;10.93;6.55;;;;;;;9.12;79.84;102479.69;5057161;28;20537;-71
2023/05/19 05:09:10;;;;;;;14.30;6.88;;;;;;;9.53;78.78;102485.00;5044883;28;20053;-70
2023/05/19 05:11:56;;;;;;;12.88;6.93;;;;;;;9.77;77.76;102479.72;5043559;28;20054;-70
2023/05/19 05:14:42;;;;;;;12.18;6.82;;;;;;;10.06;76.89;102472.66;5032529;28;20049;-68
2023/05/19 05:17:29;;;;;;;11.07;6.32;;;;;;;10.50;75.30;102481.34;5045987;28;20041;-71
2023/05/19 05:20:15;;;;;;;10.85;6.15;;;;;;;10.80;73.71;102479.47;5043941;28;20069;-71
2023/05/19 05:23:04;;;;;;;13.30;5.85;;;;;;;10.64;73.81;102482.19;5050332;28;20052;-71
2023/05/19 05:25:51;;;;;;;9.52;5.70;;;;;;;12.00;70.64;102468.91;5032814;28;20050;-71
2023/05/19 05:28:37;;;;;;;8.68;5.55;;;;;;;14.28;63.03;102459.31;5054093;28;20514;-71
2023/05/19 05:31:23;;;;;;;9.02;4.90;;;;;;;15.87;56.89;102461.00;5047094;28;20060;-71
2023/05/19 05:34:09;;;;;;;10.30;4.50;;;;;;;16.71;53.85;102463.06;5046537;28;20084;-71
2023/05/19 05:36:57;;;;;;;7.53;4.60;;;;;;;17.76;50.43;102458.78;5044232;28;20125;-71
2023/05/19 05:39:42;;;;;;;8.40;4.50;;;;;;;18.51;47.90;102458.81;5037049;28;20494;-71
2023/05/19 05:42:28;;;;;;;7.10;4.22;;;;;;;18.89;45.13;102461.78;5042962;28;20049;-71
2023/05/19 05:45:14;;;;;;;10.07;4.35;;;;;;;19.07;45.58;102463.72;5029537;28;20062;-73
2023/05/19 05:48:01;;;;;;;8.32;4.35;;;;;;;19.44;44.43;102463.13;5045265;28;20042;-73
2023/05/19 05:50:49;;;;;;;6.68;3.88;;;;;;;19.58;43.37;102474.13;5042948;28;20092;-73
2023/05/19 05:53:48;;;;;;;6.93;3.83;;;;;;;19.19;44.33;102465.03;5046245;28;20042;-71
2023/05/19 05:56:35;;;;;;;6.50;3.60;;;;;;;19.49;43.67;102469.16;5046043;28;20057;-71
2023/05/19 05:59:23;;;;;;;7.68;3.90;;;;;;;19.94;42.51;102472.63;5068021;28;20830;-71
2023/05/19 06:02:09;;;;;;;8.27;3.92;;;;;;;19.91;42.13;102460.25;5060358;28;20557;-71
2023/05/19 06:04:54;;;;;;;6.32;3.53;;;;;;;18.34;43.96;102464.78;5035948;28;20506;-71
2023/05/19 06:07:42;;;;;;;9.32;3.97;;;;;;;15.98;49.55;102470.44;5042864;28;20053;-71
2023/05/19 06:10:31;;;;;;;7.82;4.00;;;;;;;14.53;53.70;102472.06;5052525;28;20533;-71
2023/05/19 06:13:22;;;;;;;9.48;4.07;;;;;;;13.69;56.60;102477.19;5039280;28;20513;-70
2023/05/19 06:16:08;;;;;;;7.90;3.72;;;;;;;13.20;59.01;102479.72;5039713;28;20056;-73
2023/05/19 06:18:58;;;;;;;9.02;4.25;;;;;;;12.89;60.13;102478.41;5056646;28;20128;-71
2023/05/19 06:21:43;;;;;;;10.07;4.22;;;;;;;12.72;61.18;102476.00;5037427;28;20057;-73
2023/05/19 06:24:29;;;;;;;6.03;4.00;;;;;;;12.66;61.37;102472.53;5051958;28;20060;-71
2023/05/19 06:27:15;;;;;;;8.13;4.13;;;;;;;12.61;61.92;102471.75;5061978;28;20129;-70
2023/05/19 06:30:01;;;;;;;7.80;3.95;;;;;;;12.64;61.16;102471.69;5044371;28;20057;-71
2023/05/19 06:32:51;;;;;;;8.68;3.83;;;;;;;12.63;61.57;102473.47;5043426;28;20061;-71
2023/05/19 06:35:37;;;;;;;7.18;3.85;;;;;;;12.66;61.49;102477.84;5051964;28;20576;-71
2023/05/19 06:38:23;;;;;;;9.70;4.38;;;;;;;12.74;60.86;102476.84;5054704;28;20532;-71
2023/05/19 06:41:08;;;;;;;10.57;3.70;;;;;;;12.87;60.82;102485.50;5076395;28;20049;-71
2023/05/19 06:43:55;;;;;;;12.00;4.03;;;;;;;13.01;59.41;102485.28;5038656;28;20144;-71
2023/05/19 06:46:40;;;;;;;5.90;3.22;;;;;;;13.16;59.53;102473.59;5065729;28;20057;-70
2023/05/19 06:49:28;;;;;;;13.15;3.60;;;;;;;13.37;59.30;102476.81;5053398;28;20045;-70
2023/05/19 06:52:13;;;;;;;11.32;3.90;;;;;;;13.66;58.36;102479.03;5054028;28;20049;-71
2023/05/19 06:54:58;;;;;;;5.95;3.00;;;;;;;13.87;57.25;102481.31;5054867;28;20054;-71
2023/05/19 06:57:44;;;;;;;8.07;3.47;;;;;;;13.89;56.51;102474.22;5051042;28;20048;-70
2023/05/19 07:00:31;;;;;;;6.22;3.13;;;;;;;13.90;56.17;102481.25;5060279;28;20129;-72
2023/05/19 07:03:21;;;;;;;6.70;3.28;;;;;;;13.88;55.83;102483.97;5039460;28;20102;-68
2023/05/19 07:06:09;;;;;;;4.40;2.55;;;;;;;13.89;55.60;102477.72;5062785;28;20053;-71
2023/05/19 07:08:55;;;;;;;7.93;3.47;;;;;;;13.86;56.16;102475.16;5081835;28;20052;-71
2023/05/19 07:11:41;;;;;;;5.38;3.00;;;;;;;14.00;55.74;102474.00;5085273;28;20044;-71
2023/05/19 07:14:28;;;;;;;7.95;2.95;;;;;;;14.05;55.17;102470.38;5084506;28;20051;-71
2023/05/19 07:17:13;;;;;;;8.18;3.10;;;;;;;14.14;54.65;102475.47;5104114;28;20511;-71
2023/05/19 07:20:05;;;;;;;7.65;2.92;;;;;;;14.15;54.68;102468.41;5094432;28;20835;-70
2023/05/19 07:22:51;;;;;;;6.50;3.00;;;;;;;14.16;54.96;102471.94;5101037;28;20579;-70
2023/05/19 07:25:36;;;;;;;7.63;2.90;;;;;;;14.25;54.99;102472.66;5087698;28;20049;-71
2023/05/19 07:28:21;;;;;;;7.63;2.88;;;;;;;14.48;55.35;102473.97;5078393;28;20044;-70
2023/05/19 07:31:07;;;;;;;6.55;2.58;;;;;;;14.72;54.04;102471.69;5079135;28;20048;-70
2023/05/19 07:33:52;;;;;;;6.72;3.00;;;;;;;14.79;53.84;102478.66;5089101;28;20103;-71
2023/05/19 07:36:40;;;;;;;6.60;2.50;;;;;;;14.80;53.06;102475.09;5087288;28;20049;-70
2023/05/19 07:39:28;;;;;;;8.93;2.95;;;;;;;14.78;52.75;102471.59;5078689;28;20153;-70
2023/05/19 07:42:14;;;;;;;9.82;2.83;;;;;;;14.90;52.38;102481.06;5059470;28;20053;-70
2023/05/19 07:45:00;;;;;;;7.47;2.60;;;;;;;14.95;51.79;102468.56;5084902;28;20222;-70
2023/05/19 07:47:45;;;;;;;20.50;5.18;;;;;;;15.09;53.26;102470.91;5091066;28;20720;-70
2023/05/19 07:50:30;;;;;;;8.05;3.10;;;;;;;15.28;51.78;102468.66;5094132;28;20048;-70
2023/05/19 07:53:18;;;;;;;9.93;3.08;;;;;;;15.38;52.39;102469.31;5086604;28;20483;-70
2023/05/19 07:56:04;;;;;;;4.75;2.03;;;;;;;15.57;49.76;102475.03;5083862;28;20468;-71
2023/05/19 07:58:50;;;;;;;17.02;3.38;;;;;;;15.53;50.72;102465.41;5073056;28;20569;-70
2023/05/19 08:01:36;;;;;;;22.75;4.43;;;;;;;15.62;51.02;102461.63;5096195;28;20091;-70
2023/05/19 08:04:21;;;;;;;7.85;2.25;;;;;;;15.80;50.18;102462.94;5077045;28;20049;-70
2023/05/19 08:07:06;;;;;;;4.75;2.03;;;;;;;15.92;48.94;102456.47;5065077;28;20049;-70
2023/05/19 08:09:52;;;;;;;11.13;3.67;;;;;;;16.04;48.24;102464.06;5100277;28;20045;-70
2023/05/19 08:12:37;;;;;;;7.72;2.33;;;;;;;16.12;47.56;102463.88;5088395;28;20512;-71
2023/05/19 08:15:24;;;;;;;10.45;2.47;;;;;;;16.19;47.68;102452.13;5079910;28;20052;-70
2023/05/19 08:18:09;;;;;;;7.20;2.35;;;;;;;16.29;47.85;102455.41;5092464;28;20040;-70
2023/05/19 08:20:54;;;;;;;7.22;2.55;;;;;;;16.35;47.85;102449.91;5086318;28;20084;-71
2023/05/19 08:23:40;;;;;;;9.75;3.25;;;;;;;16.41;48.59;102438.22;5098010;28;20508;-71
2023/05/19 08:26:26;;;;;;;5.78;2.20;;;;;;;16.57;48.58;102443.94;5081774;28;20053;-71
2023/05/19 08:29:12;;;;;;;14.05;4.85;;;;;;;16.69;48.80;102443.59;5095523;27;20523;-71
2023/05/19 08:31:57;;;;;;;7.93;2.28;;;;;;;16.86;46.58;102442.19;5091200;28;20048;-71
2023/05/19 08:34:42;;;;;;;7.65;2.72;;;;;;;16.95;47.64;102428.59;5058272;28;20052;-71
2023/05/19 08:37:28;;;;;;;9.40;2.80;;;;;;;17.04;47.34;102428.28;5096929;28;20080;-71
2023/05/19 08:40:17;;;;;;;9.57;2.22;;;;;;;17.11;46.74;102428.13;5084951;28;20566;-71
2023/05/19 08:43:02;;;;;;;6.68;2.03;;;;;;;17.27;46.58;102415.16;5080029;28;20927;-71
2023/05/19 08:45:48;;;;;;;12.23;2.90;;;;;;;17.44;45.88;102414.59;5081920;28;20044;-71
2023/05/19 08:48:36;;;;;;;14.82;4.32;;;;;;;17.61;45.73;102409.53;5092353;28;20045;-71
2023/05/19 08:51:41;;;;;;;5.95;2.03;;;;;;;17.77;43.52;102404.53;5100843;28;20064;-71
2023/05/19 08:54:44;;;;;;;4.75;1.80;;;;;;;17.67;43.58;102409.31;5105327;28;20044;-71
2023/05/19 08:57:31;;;;;;;6.75;1.67;;;;;;;17.74;44.43;102399.28;5061987;28;20036;-71
2023/05/19 09:00:19;;;;;;;5.10;1.50;;;;;;;17.93;41.23;102401.28;5106691;28;20380;-71
2023/05/19 09:03:06;;;;;;;6.13;1.48;;;;;;;17.86;42.13;102397.97;5084197;28;20351;-71
2023/05/19 09:06:07;;;;;;;3.75;1.48;;;;;;;18.09;40.90;102390.94;5076393;28;20052;-71
2023/05/19 09:08:53;;;;;;;4.53;1.65;;;;;;;18.11;39.56;102394.44;5082698;28;20040;-71
2023/05/19 09:11:38;;;;;;;7.32;2.05;;;;;;;18.13;40.08;102397.94;5071003;28;20115;-71
2023/05/19 09:14:23;;;;;;;7.20;1.85;;;;;;;18.21;39.64;102389.66;5086782;28;20499;-71
2023/05/19 09:17:09;;;;;;;4.10;1.25;;;;;;;18.34;38.50;102396.22;5087691;28;20044;-71
2023/05/19 09:19:54;;;;;;;6.82;1.40;;;;;;;18.39;38.08;102399.59;5085808;28;20064;-71
2023/05/19 09:22:46;;;;;;;6.35;1.55;;;;;;;18.53;38.80;102392.84;5092422;28;20044;-71
2023/05/19 09:25:31;;;;;;;4.90;1.50;;;;;;;18.69;38.19;102388.66;5085758;28;20049;-71
2023/05/19 09:28:29;;;;;;;7.35;1.70;;;;;;;18.84;37.40;102396.94;5082877;28;20127;-71
2023/05/19 09:31:14;;;;;;;4.05;1.20;;;;;;;18.77;36.64;102385.66;5072312;28;20135;-71
2023/05/19 09:34:00;;;;;;;5.13;1.33;;;;;;;18.76;37.49;102379.44;5083997;28;20053;-71
2023/05/19 09:36:51;;;;;;;6.78;1.55;;;;;;;18.83;37.80;102376.50;5088790;28;20052;-71
2023/05/19 09:39:37;;;;;;;4.20;1.27;;;;;;;18.85;37.27;102380.00;5084405;28;20045;-71
2023/05/19 09:42:28;;;;;;;3.90;1.45;;;;;;;18.86;37.03;102371.06;5085440;28;20139;-71
2023/05/19 09:45:15;;;;;;;5.75;1.40;;;;;;;18.85;37.43;102375.53;5084491;28;20536;-71
2023/05/19 09:48:04;;;;;;;7.70;1.52;;;;;;;19.00;36.89;102370.50;5085021;28;21171;-71
2023/05/19 09:50:53;;;;;;;5.60;1.45;;;;;;;19.04;36.67;102378.31;5085696;28;20056;-71
2023/05/19 09:53:38;;;;;;;4.28;1.25;;;;;;;19.12;38.14;102370.00;5075965;28;20061;-71
2023/05/19 09:56:33;;;;;;;4.57;1.50;;;;;;;19.43;36.90;102363.34;5083823;28;20055;-71
2023/05/19 09:59:22;;;;;;;5.00;1.35;;;;;;;19.39;36.17;102354.59;5077739;28;20564;-70
2023/05/19 10:02:19;;;;;;;4.68;1.63;;;;;;;19.32;36.64;102350.44;5086028;28;20049;-72
2023/05/19 10:05:09;;;;;;;3.22;1.48;;;;;;;19.57;35.87;102360.03;5087970;28;20057;-71
2023/05/19 10:07:54;;;;;;;7.65;1.65;;;;;;;19.60;36.13;102362.59;5083297;28;20082;-71
2023/05/19 10:10:47;;;;;;;5.70;1.63;;;;;;;19.58;37.03;102364.47;5063727;28;20105;-71
2023/05/19 10:13:38;;;;;;;6.97;1.50;;;;;;;19.74;36.80;102369.16;5089629;28;20497;-71
2023/05/19 10:16:26;;;;;;;5.32;1.42;;;;;;;19.96;35.58;102364.56;5104473;28;20512;-71
2023/05/19 10:19:16;;;;;;;7.65;1.60;;;;;;;19.99;34.99;102369.78;5082388;28;20044;-70
2023/05/19 10:22:01;;;;;;;4.22;1.52;;;;;;;20.00;34.75;102370.63;5085347;28;20045;-72
2023/05/19 10:24:51;;;;;;;6.25;1.98;;;;;;;19.91;35.17;102363.03;5083899;28;20122;-71
2023/05/19 10:27:43;;;;;;;5.90;1.77;;;;;;;19.80;36.21;102360.81;5067966;28;20493;-72
2023/05/19 10:30:34;;;;;;;5.53;2.13;;;;;;;19.97;35.45;102362.78;5087613;28;20570;-71
2023/05/19 10:33:40;;;;;;;5.50;1.30;;;;;;;19.73;35.53;102344.19;5081864;28;20186;-71
2023/05/19 10:36:46;;;;;;;5.28;1.52;;;;;;;19.38;35.67;102355.50;5085553;28;20056;-71
2023/05/19 10:39:34;;;;;;;3.30;1.48;;;;;;;19.38;35.28;102342.16;5083316;28;20037;-71
2023/05/19 10:42:43;;;;;;;5.43;1.38;;;;;;;19.53;36.14;102334.38;5083508;28;20057;-71
2023/05/19 10:45:35;;;;;;;4.28;1.50;;;;;;;19.84;35.75;102325.81;5087701;28;20087;-71
2023/05/19 10:48:21;;;;;;;6.28;1.80;;;;;;;20.18;34.59;102328.75;5087602;28;20053;-71
2023/05/19 10:51:10;;;;;;;4.22;1.30;;;;;;;20.33;35.80;102327.16;5088685;28;20037;-71
2023/05/19 10:54:08;;;;;;;4.63;1.70;;;;;;;20.60;33.67;102327.63;5067227;28;20144;-71
2023/05/19 10:57:02;;;;;;;4.05;1.30;;;;;;;20.46;34.04;102330.09;5093926;28;20044;-71
2023/05/19 10:59:48;;;;;;;4.45;1.45;;;;;;;20.44;33.09;102327.50;5063865;28;20052;-71
2023/05/19 11:02:40;;;;;;;4.03;1.42;;;;;;;20.32;34.02;102322.75;5075394;28;20194;-71
2023/05/19 11:05:28;;;;;;;13.05;6.03;;;;;;;20.38;33.19;102327.81;5088075;28;20579;-71
2023/05/19 11:08:32;;;;;;;3.38;1.30;;;;;;;20.54;33.06;102327.06;5080789;28;20139;-71
2023/05/19 11:11:20;;;;;;;5.00;1.75;;;;;;;20.48;32.90;102322.88;5083512;28;20534;-71
2023/05/19 11:14:13;;;;;;;7.50;1.83;;;;;;;20.48;33.62;102323.75;5056725;28;21008;-71
2023/05/19 11:16:59;;;;;;;4.38;1.52;;;;;;;20.56;33.78;102322.50;5072561;28;20044;-71
2023/05/19 11:19:58;;;;;;;3.53;1.42;;;;;;;20.61;33.44;102324.00;5086508;28;20044;-71
2023/05/19 11:23:03;;;;;;;4.18;1.63;;;;;;;20.55;33.51;102328.78;5064028;28;20052;-71
2023/05/19 11:25:52;;;;;;;4.22;1.20;;;;;;;20.16;33.34;102334.19;5085633;28;20052;-71
2023/05/19 11:28:39;;;;;;;5.65;1.67;;;;;;;20.17;33.89;102333.25;5084241;28;20106;-71
2023/05/19 11:31:26;;;;;;;6.22;2.00;;;;;;;20.41;33.46;102327.66;5083525;28;20174;-71
2023/05/19 11:34:14;;;;;;;7.13;1.60;;;;;;;20.63;33.39;102324.81;5071247;28;20103;-71
2023/05/19 11:37:04;;;;;;;4.50;1.60;;;;;;;20.74;33.49;102312.72;5085764;28;20604;-71
2023/05/19 11:39:51;;;;;;;4.95;1.60;;;;;;;20.43;32.56;102316.88;5089057;28;20064;-71
2023/05/19 11:42:37;;;;;;;5.93;1.60;;;;;;;20.25;33.09;102315.97;5074638;28;20051;-72
2023/05/19 11:45:28;;;;;;;5.53;1.48;;;;;;;20.46;33.09;102306.00;5069526;28;20049;-72
2023/05/19 11:48:17;;;;;;;6.00;2.17;;;;;;;20.50;34.22;102312.94;5083130;28;20515;-71
2023/05/19 11:51:05;;;;;;;5.35;1.80;;;;;;;20.76;34.44;102302.75;5081926;28;20625;-71
2023/05/19 11:53:53;;;;;;;5.03;1.40;;;;;;;21.00;33.24;102308.72;5069043;28;20044;-71
2023/05/19 11:56:40;;;;;;;4.40;1.48;;;;;;;21.09;32.83;102302.88;5070261;28;20036;-70
2023/05/19 11:59:34;;;;;;;6.00;1.80;;;;;;;21.26;32.83;102301.97;5077734;28;20140;-71
2023/05/19 12:02:24;;;;;;;5.43;1.33;;;;;;;21.51;32.19;102289.94;5083713;28;20052;-71
2023/05/19 12:05:19;;;;;;;3.72;1.40;;;;;;;21.69;31.32;102300.66;5083703;28;20041;-72
2023/05/19 12:08:05;;;;;;;4.85;1.50;;;;;;;21.47;31.23;102298.25;5042536;28;20053;-72
2023/05/19 12:10:51;;;;;;;3.83;1.15;;;;;;;21.29;31.62;102295.59;5042089;28;20137;-71
2023/05/19 12:13:37;;;;;;;4.30;1.40;;;;;;;21.37;32.09;102297.84;5040500;28;20088;-71
2023/05/19 12:16:31;;;;;;;6.40;1.55;;;;;;;21.39;32.01;102286.13;5046135;28;20049;-71
2023/05/19 12:19:17;;;;;;;4.57;1.75;;;;;;;21.52;31.71;102291.69;5044961;28;22237;-72
2023/05/19 12:22:06;;;;;;;5.00;1.40;;;;;;;21.17;32.80;102289.06;5045663;28;20048;-71
2023/05/19 12:24:52;;;;;;;5.93;1.58;;;;;;;21.11;32.38;102281.34;5047205;28;20053;-71
2023/05/19 12:27:37;;;;;;;3.72;1.20;;;;;;;21.38;31.51;102288.84;5049022;28;20049;-71
2023/05/19 12:30:31;;;;;;;3.60;1.30;;;;;;;21.65;31.36;102280.31;5047520;28;20045;-71
2023/05/19 12:33:18;;;;;;;;;;;;;;;21.83;30.57;102279.31;5045596;28;20049;-71
2023/05/19 12:36:05;;;;;;;5.22;1.40;;;;;;;21.92;30.80;102277.06;5052175;28;20401;-71
2023/05/19 12:38:54;;;;;;;7.45;1.77;;;;;;;22.03;30.88;102271.94;5044501;28;20766;-72
2023/05/19 12:41:39;;;;;;;7.65;1.67;;;;;;;21.92;30.41;102283.31;5046577;28;20093;-71
2023/05/19 12:44:26;;;;;;;6.05;1.33;;;;;;;21.49;30.56;102286.47;5047286;28;20196;-71
2023/05/19 12:47:19;;;;;;;4.68;1.10;;;;;;;21.06;30.74;102275.38;5046758;28;20626;-71
2023/05/19 12:50:07;;;;;;;5.00;1.45;;;;;;;21.10;30.95;102275.13;5049363;28;20050;-71
2023/05/19 12:52:53;;;;;;;4.95;1.40;;;;;;;21.18;31.46;102274.69;5043769;28;20049;-71
2023/05/19 12:55:44;;;;;;;7.95;1.60;;;;;;;21.47;30.80;102272.28;5045752;28;20053;-71
2023/05/19 12:58:33;;;;;;;6.63;1.48;;;;;;;21.12;30.75;102274.16;5049999;28;20054;-71
2023/05/19 13:01:18;;;;;;;2.92;1.50;;;;;;;21.26;30.54;102264.44;5036850;28;20053;-71
2023/05/19 13:04:05;;;;;;;4.22;1.23;;;;;;;21.46;30.67;102259.84;5055253;28;20050;-71